Latest Weather Observations for Cummins Airport

IDS60801

Issued at 2:51 pm CST Thursday 28 May 2020 (issued every 10 minutes, with the page automatically refreshed every 10 minutes)

About weather observations | Map of weather stations | Latest weather observations for SA | Other Formats
Station Details ID: 018217 Name: CUMMINS AERO Lat: -34.25 Lon: 135.71 Height: 60.11 m
Data from the previous 72 hours. | See also: Recent months at Cummins Airport
Date/Time
CST
Temp
°C
App
Temp
°C
Dew
Point
°C
Rel
Hum
%
Delta-T
°C
Wind Press
QNH
hPa
Press
MSL
hPa
Rain since
9am
mm
Dir  Spd
km/h
Gust
km/h
Spd
kts
Gust
kts
28/02:30pm 17.0 13.6 11.3 69 3.1 NW 20 28 11 15 1022.0 1022.0 0.0
28/02:00pm 16.8 13.9 10.9 68 3.2 NW 17 24 9 13 1022.1 1022.1 0.0
28/01:30pm 16.7 13.5 11.4 71 2.9 NW 19 28 10 15 1022.3 1022.3 0.0
28/01:00pm 16.1 12.9 11.3 73 2.6 NW 19 28 10 15 1022.5 1022.5 0.0
28/12:30pm 16.5 13.5 12.1 75 2.4 NW 19 28 10 15 1022.8 1022.8 0.0
28/12:00pm 16.5 13.5 12.5 77 2.2 NNW 20 32 11 17 1023.2 1023.2 0.0
28/11:30am 16.1 13.4 13.0 82 1.7 NNW 19 24 10 13 1023.5 1023.5 0.0
28/11:00am 15.0 12.4 13.2 89 1.0 NNW 19 24 10 13 1023.7 1023.7 0.0
28/10:30am 13.8 11.4 13.8 100 0.0 NNW 19 24 10 13 1023.9 1023.9 0.0
28/10:00am 12.7 10.7 12.7 100 0.0 NNW 15 22 8 12 1023.9 1023.9 0.0
28/09:30am 11.6 10.0 11.6 100 0.0 NNE 11 15 6 8 1023.7 1023.7 0.0
28/09:00am 10.5 8.6 10.5 100 0.0 N 11 15 6 8 1023.5 1023.5 1.0
28/08:30am 9.1 7.6 9.1 100 0.0 NE 7 9 4 5 1023.3 1023.3 1.0
28/08:00am 7.3 5.0 7.3 100 0.0 NNE 9 11 5 6 1023.0 1023.0 1.0
28/07:30am 6.2 3.2 6.2 100 0.0 NNE 11 11 6 6 1022.5 1022.5 1.0
28/07:00am 5.9 3.3 5.9 100 0.0 NE 9 11 5 6 1022.1 1022.1 1.0
28/06:30am 6.8 4.4 6.8 100 0.0 N 9 11 5 6 1022.0 1022.0 1.0
28/06:00am 6.6 5.1 6.6 100 0.0 NNE 4 7 2 4 1021.6 1021.6 1.0
28/05:30am 7.4 4.7 7.4 100 0.0 N 11 13 6 7 1021.3 1021.3 1.0
28/05:00am 7.7 5.5 7.7 100 0.0 NNE 9 11 5 6 1021.3 1021.3 1.0
28/04:30am 8.4 6.3 8.4 100 0.0 NE 9 11 5 6 1021.5 1021.5 1.0
28/04:00am 9.1 7.6 9.1 100 0.0 NNE 7 11 4 6 1021.4 1021.4 1.0
28/03:30am 8.6 6.2 8.6 100 0.0 N 11 13 6 7 1021.3 1021.3 1.0
28/03:00am 8.7 6.7 8.7 100 0.0 NNE 9 11 5 6 1021.2 1021.2 1.0
28/02:30am 10.4 10.6 10.4 100 0.0 CALM 0 0 0 0 1021.3 1021.3 1.0
28/02:00am 10.3 9.3 10.3 100 0.0 N 6 7 3 4 1021.3 1021.3 1.0
28/01:30am 10.3 8.7 10.3 100 0.0 N 9 13 5 7 1021.2 1021.2 1.0
28/01:00am 9.8 8.1 9.8 100 0.0 NNE 9 11 5 6 1021.1 1021.1 0.8
28/12:30am 9.8 8.5 9.8 100 0.0 NNE 7 9 4 5 1021.3 1021.3 0.4
28/12:00am 9.5 8.1 9.5 100 0.0 N 7 9 4 5 1021.2 1021.2 0.4
 
Date/Time
CST
Temp
°C
App
Temp
°C
Dew
Point
°C
Rel
Hum
%
Delta-T
°C
Wind Press
QNH
hPa
Press
MSL
hPa
Rain since
9am
mm
Dir  Spd
km/h
Gust
km/h
Spd
kts
Gust
kts
27/11:30pm 7.5 5.8 7.5 100 0.0 NNE 6 7 3 4 1021.2 1021.2 0.4
27/11:00pm 8.7 7.1 8.7 100 0.0 NNE 7 9 4 5 1021.1 1021.1 0.4
27/10:30pm 8.9 7.5 8.9 100 0.0 NE 6 7 3 4 1021.1 1021.1 0.4
27/10:00pm 9.0 8.8 9.0 100 0.0 CALM 0 0 0 0 1021.0 1021.0 0.4
27/09:30pm 9.4 9.3 9.4 100 0.0 CALM 0 0 0 0 1020.9 1020.9 0.4
27/09:00pm 10.4 9.2 10.4 100 0.0 NNE 7 9 4 5 1020.7 1020.7 0.4
27/08:30pm 11.8 11.0 11.8 100 0.0 N 7 9 4 5 1020.6 1020.6 0.4
27/08:00pm 10.5 10.7 10.5 100 0.0 CALM 0 0 0 0 1020.4 1020.4 0.0
27/07:30pm 10.2 10.1 9.6 96 0.3 CALM 0 0 0 0 1020.1 1020.1 0.0
27/07:00pm 11.0 11.1 10.1 94 0.5 CALM 0 6 0 3 1019.9 1019.9 0.0
27/06:30pm 11.5 11.6 10.1 91 0.7 CALM 0 0 0 0 1019.7 1019.7 0.0
27/06:00pm 12.1 10.6 10.7 91 0.7 W 9 11 5 6 1019.5 1019.5 0.0
27/05:30pm 13.2 11.4 10.7 85 1.3 W 11 13 6 7 1019.2 1019.2 0.0
27/05:00pm 14.7 12.4 11.8 83 1.6 WSW 15 20 8 11 1019.0 1019.0 0.0
27/04:30pm 15.8 12.5 11.6 76 2.3 W 20 26 11 14 1018.8 1018.8 0.0
27/04:00pm 17.0 13.9 10.4 65 3.5 WNW 17 24 9 13 1018.5 1018.5 0.0
27/03:30pm 17.0 14.2 11.5 70 3.0 WSW 17 24 9 13 1018.4 1018.4 0.0
27/03:00pm 17.2 14.9 11.7 70 3.0 W 15 24 8 13 1018.2 1018.2 0.0
27/02:30pm 17.1 13.8 10.9 67 3.3 W 19 28 10 15 1018.2 1018.2 0.0
27/02:00pm 16.0 13.0 11.8 76 2.3 WSW 19 26 10 14 1018.4 1018.4 0.0
27/01:30pm 16.2 12.7 12.2 77 2.2 W 22 28 12 15 1018.5 1018.5 0.0
27/01:00pm 16.3 14.0 13.0 81 1.8 W 17 22 9 12 1018.6 1018.6 0.0
27/12:30pm 15.6 14.0 14.0 90 0.9 WNW 15 20 8 11 1018.9 1018.9 0.0
27/12:00pm 14.7 14.2 13.7 94 0.6 NW 9 13 5 7 1019.1 1019.1 0.0
27/11:30am 14.6 13.6 14.6 100 0.0 WNW 13 17 7 9 1019.6 1019.6 0.0
27/11:00am 14.3 13.1 14.1 99 0.1 NNW 13 17 7 9 1019.9 1019.9 0.0
27/10:30am 14.3 13.2 14.3 100 0.0 NNW 13 15 7 8 1020.1 1020.1 0.0
27/10:00am 12.9 11.3 12.9 100 0.0 NNW 13 17 7 9 1020.1 1020.1 0.0
27/09:30am 12.3 10.2 12.3 100 0.0 N 15 20 8 11 1019.8 1019.8 0.0
27/09:00am 11.3 9.2 11.3 100 0.0 N 13 19 7 10 1019.7 1019.7 0.4
27/08:30am 10.1 8.1 10.1 100 0.0 NNE 11 15 6 8 1019.4 1019.4 0.4
27/08:00am 9.7 8.0 9.7 100 0.0 NE 9 11 5 6 1019.1 1019.1 0.4
27/07:30am 9.7 8.0 9.7 100 0.0 NE 9 11 5 6 1018.6 1018.6 0.4
27/07:00am 9.9 8.8 9.9 100 0.0 NW 6 13 3 7 1018.2 1018.2 0.4
27/06:30am 10.2 7.1 10.2 100 0.0 NW 17 20 9 11 1017.8 1017.8 0.4
27/06:00am 10.2 7.1 10.2 100 0.0 NNW 17 26 9 14 1017.4 1017.3 0.4
27/05:30am 9.2 5.8 9.2 100 0.0 NNW 17 20 9 11 1017.2 1017.1 0.4
27/05:00am 8.9 5.4 8.9 100 0.0 NNW 17 20 9 11 1017.2 1017.1 0.4
27/04:30am 9.1 5.7 9.1 100 0.0 NNW 17 20 9 11 1017.1 1017.0 0.4
27/04:00am 9.5 6.2 9.5 100 0.0 NNW 17 20 9 11 1017.0 1016.9 0.4
27/03:30am 9.1 5.3 9.1 100 0.0 NNW 19 24 10 13 1017.0 1016.9 0.4
27/03:00am 8.8 4.9 8.8 100 0.0 NNW 19 24 10 13 1016.9 1016.8 0.2
27/02:30am 8.9 5.4 8.9 100 0.0 N 17 20 9 11 1016.9 1016.8 0.2
27/02:00am 9.3 5.9 9.3 100 0.0 N 17 20 9 11 1016.9 1016.8 0.2
27/01:30am 9.3 6.3 9.2 99 0.0 N 15 20 8 11 1016.8 1016.7 0.2
27/01:00am 8.9 6.0 8.1 95 0.4 N 13 17 7 9 1016.8 1016.7 0.2
27/12:30am 8.8 6.3 8.2 96 0.3 N 11 15 6 8 1016.9 1016.8 0.2
27/12:00am 9.0 6.7 8.9 99 0.0 NNE 11 13 6 7 1016.9 1016.8 0.2
 
Date/Time
CST
Temp
°C
App
Temp
°C
Dew
Point
°C
Rel
Hum
%
Delta-T
°C
Wind Press
QNH
hPa
Press
MSL
hPa
Rain since
9am
mm
Dir  Spd
km/h
Gust
km/h
Spd
kts
Gust
kts
26/11:30pm 9.1 6.8 9.1 100 0.0 NNE 11 13 6 7 1016.9 1016.8 0.2
26/11:00pm 11.1 8.6 11.1 100 0.0 N 15 20 8 11 1016.7 1016.6 0.2
26/10:30pm 10.4 8.1 10.4 100 0.0 N 13 19 7 10 1016.7 1016.6 0.2
26/10:00pm 11.2 9.1 11.0 99 0.1 N 13 17 7 9 1016.7 1016.6 0.2
26/09:30pm 11.6 9.4 10.7 94 0.5 N 13 15 7 8 1016.8 1016.7 0.2
26/09:00pm 12.2 9.2 9.2 82 1.5 N 15 20 8 11 1016.7 1016.6 0.2
26/08:30pm 12.4 9.9 9.6 83 1.4 N 13 15 7 8 1016.5 1016.4 0.2
26/08:00pm 12.8 9.5 8.1 73 2.3 NNW 15 20 8 11 1016.5 1016.4 0.2
26/07:30pm 12.5 9.7 7.0 69 2.6 N 11 15 6 8 1016.0 1015.9 0.2
26/07:00pm 12.5 9.7 7.0 69 2.7 N 11 15 6 8 1015.5 1015.4 0.2
26/06:30pm 13.3 8.9 6.4 63 3.3 N 19 24 10 13 1015.0 1014.9 0.2
26/06:00pm 13.1 9.2 7.1 67 2.9 N 17 20 9 11 1014.5 1014.4 0.2
26/05:30pm 13.6 10.1 7.4 66 3.0 N 15 20 8 11 1014.5 1014.4 0.2
26/05:00pm 14.6 10.8 7.6 63 3.5 N 17 24 9 13 1014.1 1014.0 0.2
26/04:30pm 14.7 11.7 9.1 69 2.9 N 15 20 8 11 1013.9 1013.8 0.2
26/04:00pm 14.2 11.4 10.0 76 2.2 N 15 24 8 13 1013.9 1013.8 0.2
26/03:30pm 14.7 10.2 8.6 67 3.1 N 22 32 12 17 1013.6 1013.5 0.2
26/03:00pm 13.8 9.9 9.5 75 2.2 N 20 26 11 14 1013.8 1013.7 0.2
26/02:30pm 13.9 8.6 8.3 69 2.8 NNW 26 35 14 19 1014.1 1014.0 0.0
26/02:00pm 16.2 9.2 6.1 51 4.9 NNW 32 43 17 23 1013.8 1013.7 0.0
26/01:45pm 16.5 9.2 4.5 45 5.7 N 32 50 17 27 1013.7 1013.6 0.0
26/01:30pm 16.7 9.8 4.7 45 5.7 N 30 43 16 23 1013.7 1013.6 0.0
26/01:00pm 16.1 8.8 4.5 46 5.5 N 32 46 17 25 1014.1 1014.0 0.0
26/12:30pm 15.5 7.6 4.3 47 5.2 N 35 44 19 24 1014.6 1014.5 0.0
26/12:00pm 15.2 7.6 4.0 47 5.2 N 33 56 18 30 1015.0 1014.9 0.0
26/11:30am 14.4 7.5 4.4 51 4.6 N 30 43 16 23 1015.2 1015.1 0.0
26/11:00am 13.5 6.6 4.4 54 4.2 N 30 43 16 23 1015.6 1015.5 0.0
26/10:30am 13.3 6.3 4.2 54 4.2 N 30 39 16 21 1015.7 1015.6 0.0
26/10:00am 12.7 6.0 3.9 55 4.0 N 28 35 15 19 1016.0 1015.9 0.0
26/09:30am 12.4 6.1 3.9 56 3.8 N 26 39 14 21 1016.4 1016.3 0.0
26/09:00am 12.3 4.9 3.8 56 3.8 N 32 41 17 22 1016.4 1016.3 0.0
26/08:30am 11.6 5.7 4.1 60 3.4 NNE 24 33 13 18 1016.3 1016.2 0.0
26/08:00am 10.7 4.8 4.0 63 3.0 NNE 24 35 13 19 1016.5 1016.4 0.0
26/07:30am 9.7 4.1 3.7 66 2.6 NNE 22 28 12 15 1016.6 1016.5 0.0
26/07:00am 10.1 4.9 3.8 65 2.8 NNE 20 30 11 16 1016.8 1016.7 0.0
26/06:30am 9.1 3.5 3.5 68 2.4 NNE 22 28 12 15 1016.4 1016.3 0.0
26/06:00am 9.6 4.4 3.8 67 2.5 NNE 20 28 11 15 1016.5 1016.4 0.0
26/05:30am 10.0 4.4 3.7 65 2.8 NNE 22 28 12 15 1016.4 1016.3 0.0
26/05:00am 10.1 4.2 4.0 66 2.7 NNE 24 37 13 20 1016.4 1016.3 0.0
26/04:30am 9.3 3.4 3.7 68 2.4 NNE 24 32 13 17 1016.7 1016.6 0.0
26/04:00am 9.2 3.3 3.8 69 2.4 NNE 24 33 13 18 1016.6 1016.5 0.0
26/03:30am 9.6 4.1 4.2 69 2.4 NE 22 30 12 16 1016.8 1016.7 0.0
26/03:00am 9.6 4.1 4.2 69 2.4 NE 22 30 12 16 1017.2 1017.1 0.0
26/02:30am 9.3 3.4 4.1 70 2.3 NE 24 35 13 19 1017.4 1017.3 0.0
26/02:00am 10.3 4.5 4.5 67 2.6 NE 24 30 13 16 1017.6 1017.6 0.0
26/01:30am 10.0 5.1 4.2 67 2.6 NE 19 28 10 15 1017.8 1017.8 0.0
26/01:00am 10.1 5.3 4.5 68 2.5 NE 19 26 10 14 1018.1 1018.1 0.0
26/12:30am 9.8 5.7 4.6 70 2.3 NE 15 19 8 10 1018.9 1018.9 0.0
26/12:00am 9.6 5.5 4.6 71 2.2 NE 15 19 8 10 1018.6 1018.6 0.0
 
Date/Time
CST
Temp
°C
App
Temp
°C
Dew
Point
°C
Rel
Hum
%
Delta-T
°C
Wind Press
QNH
hPa
Press
MSL
hPa
Rain since
9am
mm
Dir  Spd
km/h
Gust
km/h
Spd
kts
Gust
kts
25/11:30pm 10.1 6.1 4.7 69 2.4 NE 15 22 8 12 1018.4 1018.4 0.0
25/11:00pm 9.8 5.8 5.0 72 2.2 NE 15 20 8 11 1018.6 1018.6 0.0
25/10:30pm 9.7 5.7 4.9 72 2.2 NE 15 19 8 10 1018.8 1018.8 0.0
25/10:00pm 9.7 6.5 4.9 72 2.2 NE 11 15 6 8 1019.2 1019.2 0.0
25/09:30pm 9.5 6.7 5.3 75 1.9 NNE 9 11 5 6 1019.8 1019.8 0.0
25/09:00pm 10.4 7.3 5.4 71 2.3 NE 11 13 6 7 1019.4 1019.4 0.0
25/08:30pm 11.4 8.0 5.9 69 2.6 NNE 13 20 7 11 1019.0 1019.0 0.0
25/08:00pm 11.3 7.8 7.4 77 1.9 NE 15 19 8 10 1018.5 1018.5 0.0
25/07:30pm 11.7 7.6 8.0 78 1.8 ENE 19 24 10 13 1017.7 1017.7 0.0
25/07:00pm 11.3 8.2 8.7 84 1.3 ENE 15 22 8 12 1018.5 1018.5 0.0
25/06:30pm 11.3 7.7 8.5 83 1.4 ENE 17 22 9 12 1018.9 1018.9 0.0
25/06:00pm 11.7 8.0 8.0 78 1.8 ENE 17 20 9 11 1019.3 1019.3 0.0
25/05:30pm 12.2 8.4 7.7 74 2.2 ENE 17 22 9 12 1018.9 1018.9 0.0
25/05:00pm 13.1 9.6 7.3 68 2.8 ENE 15 20 8 11 1019.1 1019.1 0.0
25/04:30pm 15.0 10.6 4.7 50 4.8 NNE 17 22 9 12 1019.4 1019.4 0.0
25/04:00pm 15.7 11.0 5.0 49 5.1 N 19 24 10 13 1019.7 1019.7 0.0
25/03:30pm 16.0 11.0 4.7 47 5.3 NE 20 30 11 16 1019.4 1019.4 0.0
25/03:00pm 16.2 11.2 4.6 46 5.5 NNE 20 30 11 16 1019.6 1019.6 0.0

Other formats

Comma delimited format used in spreadsheet applications
http://www.bom.gov.au/fwo/IDS60801/IDS60801.95663.axf

JavaScript Object Notation format (JSON) in row-major order
http://www.bom.gov.au/fwo/IDS60801/IDS60801.95663.json

Data quality

Most of these data are generated automatically and are frequently updated. Quality checks on data are not normally performed. It is possible for incorrect values to appear. Refer to information at About Latest Weather Observations and please check the disclaimer before using these data.